Time;durP1;ratioP1;P1;durP2;ratioP2;P2;SDS_P1;SDS_P2;PMS_P1;PMS_P2;Temp;Humidity;BMP_temperature;BMP_pressure;BME280_temperature;BME280_humidity;BME280_pressure;Samples;Min_cycle;Max_cycle;Signal;HPM_P1;HPM_P2
2022/03/14 00:01:21;;;;;;;6.43;4.83;;;7.90;1.00;;;;;;5053351;28;20994;-61
2022/03/14 00:03:59;;;;;;;6.90;5.00;;;7.90;1.00;;;;;;5070927;28;20520;-61
2022/03/14 00:06:25;;;;;;;6.77;5.30;;;7.80;1.00;;;;;;5068639;28;20187;-61
2022/03/14 00:08:54;;;;;;;9.93;6.50;;;7.80;1.00;;;;;;5068740;28;20437;-63
2022/03/14 00:11:22;;;;;;;9.13;5.53;;;7.80;1.00;;;;;;5070008;28;20442;-60
2022/03/14 00:13:47;;;;;;;6.00;5.40;;;7.80;1.00;;;;;;5069339;28;20441;-63
2022/03/14 00:16:27;;;;;;;6.90;5.70;;;7.80;1.00;;;;;;5068972;28;20444;-60
2022/03/14 00:18:55;;;;;;;8.60;5.43;;;8.10;1.00;;;;;;5069169;28;20248;-60
2022/03/14 00:21:25;;;;;;;7.10;5.80;;;7.70;1.00;;;;;;5069715;28;20472;-60
2022/03/14 00:23:56;;;;;;;5.87;5.37;;;7.70;1.00;;;;;;5070387;28;20480;-61
2022/03/14 00:26:22;;;;;;;7.10;5.83;;;7.80;1.00;;;;;;5072738;28;20877;-63
2022/03/14 00:28:48;;;;;;;7.00;5.67;;;7.80;1.00;;;;;;5071484;28;20839;-62
2022/03/14 00:31:14;;;;;;;7.00;5.30;;;7.80;1.00;;;;;;5070601;28;20441;-60
2022/03/14 00:33:40;;;;;;;7.30;5.60;;;7.70;1.00;;;;;;5051091;28;21004;-61
2022/03/14 00:36:29;;;;;;;7.17;6.10;;;7.70;1.00;;;;;;5065052;28;20450;-61
2022/03/14 00:38:55;;;;;;;9.63;5.43;;;7.60;1.00;;;;;;5061096;28;20198;-61
2022/03/14 00:41:21;;;;;;;7.97;6.23;;;7.60;1.00;;;;;;5068045;28;20826;-61
2022/03/14 00:43:47;;;;;;;6.83;6.07;;;;;;;;;;5070992;28;20446;-62
2022/03/14 00:46:16;;;;;;;6.00;5.40;;;7.60;1.00;;;;;;5069623;28;20787;-61
2022/03/14 00:48:41;;;;;;;9.00;6.60;;;7.60;1.00;;;;;;5065894;28;20451;-62
2022/03/14 00:51:13;;;;;;;7.77;5.93;;;7.60;1.00;;;;;;5070959;28;20623;-61
2022/03/14 00:53:39;;;;;;;10.70;7.10;;;7.60;1.00;;;;;;5067614;28;20215;-62
2022/03/14 00:56:11;;;;;;;9.27;6.50;;;7.50;1.00;;;;;;5049646;28;20460;-62
2022/03/14 00:58:36;;;;;;;7.70;6.07;;;7.40;1.00;;;;;;5066549;28;20188;-60
2022/03/14 01:01:02;;;;;;;6.73;6.07;;;7.40;1.00;;;;;;5065466;28;20484;-62
2022/03/14 01:03:28;;;;;;;9.03;6.30;;;7.50;1.00;;;;;;5068802;28;20652;-62
2022/03/14 01:05:53;;;;;;;7.57;6.00;;;7.50;1.00;;;;;;5050061;28;20461;-61
2022/03/14 01:08:19;;;;;;;7.17;5.80;;;7.50;1.00;;;;;;5069123;28;20192;-61
2022/03/14 01:10:46;;;;;;;8.20;6.40;;;7.50;1.00;;;;;;5070299;28;20587;-62
2022/03/14 01:13:12;;;;;;;8.87;6.50;;;7.50;1.00;;;;;;5070569;28;20203;-63
2022/03/14 01:15:38;;;;;;;8.40;6.03;;;7.30;1.00;;;;;;5070254;28;20441;-61
2022/03/14 01:18:05;;;;;;;7.47;6.53;;;7.30;1.00;;;;;;5068607;28;20183;-61
2022/03/14 01:20:31;;;;;;;8.17;5.50;;;7.30;1.00;;;;;;5069335;28;21205;-60
2022/03/14 01:22:57;;;;;;;7.43;6.17;;;7.30;1.00;;;;;;5069786;28;20437;-61
2022/03/14 01:25:24;;;;;;;8.97;7.53;;;7.30;1.00;;;;;;5068603;28;20940;-62
2022/03/14 01:27:50;;;;;;;8.77;6.40;;;7.20;1.00;;;;;;5069099;28;20636;-62
2022/03/14 01:30:16;;;;;;;6.43;5.70;;;;;;;;;;5070507;28;20533;-62
2022/03/14 01:32:42;;;;;;;7.67;5.87;;;7.20;1.00;;;;;;5070542;28;20580;-60
2022/03/14 01:35:07;;;;;;;8.63;6.60;;;7.10;1.00;;;;;;5072285;28;20449;-61
2022/03/14 01:37:33;;;;;;;8.40;6.27;;;7.00;1.00;;;;;;5073575;28;20575;-59
2022/03/14 01:39:59;;;;;;;10.03;6.30;;;7.00;1.00;;;;;;5072909;28;20179;-63
2022/03/14 01:42:24;;;;;;;7.50;6.33;;;7.00;1.00;;;;;;5072371;28;20191;-62
2022/03/14 01:44:50;;;;;;;7.63;5.80;;;6.90;1.00;;;;;;5072842;28;20222;-61
2022/03/14 01:47:16;;;;;;;8.03;6.30;;;6.90;1.00;;;;;;5068689;28;20324;-61
2022/03/14 01:49:43;;;;;;;8.10;6.90;;;6.90;1.00;;;;;;5069961;28;20452;-62
2022/03/14 01:52:09;;;;;;;7.43;6.63;;;6.90;1.00;;;;;;5073656;28;20763;-61
2022/03/14 01:54:35;;;;;;;9.70;6.50;;;6.90;1.00;;;;;;5072251;28;20441;-62
2022/03/14 01:57:01;;;;;;;8.10;5.83;;;6.90;1.00;;;;;;5070583;28;20441;-61
2022/03/14 01:59:29;;;;;;;7.60;6.63;;;6.90;1.00;;;;;;5068255;28;20857;-62
2022/03/14 02:01:56;;;;;;;8.57;6.67;;;6.90;1.00;;;;;;5069178;28;20230;-62
2022/03/14 02:04:22;;;;;;;7.90;6.20;;;;;;;;;;5068767;28;20453;-64
2022/03/14 02:06:49;;;;;;;8.67;6.50;;;6.80;1.00;;;;;;5071828;28;20453;-61
2022/03/14 02:09:15;;;;;;;9.10;6.47;;;6.80;1.00;;;;;;5073323;28;20437;-61
2022/03/14 02:11:56;;;;;;;8.60;5.87;;;6.80;1.00;;;;;;5072129;28;20977;-63
2022/03/14 02:14:22;;;;;;;8.43;6.77;;;6.80;1.00;;;;;;5072989;28;20202;-60
2022/03/14 02:16:48;;;;;;;9.07;6.70;;;6.80;1.00;;;;;;5073409;28;20468;-61
2022/03/14 02:19:13;;;;;;;7.70;6.47;;;6.70;1.00;;;;;;5069547;28;21395;-62
2022/03/14 02:21:39;;;;;;;9.83;7.47;;;6.80;1.00;;;;;;5076171;28;20183;-62
2022/03/14 02:24:05;;;;;;;6.03;5.13;;;6.70;1.00;;;;;;5056906;28;20188;-60
2022/03/14 02:26:31;;;;;;;6.80;6.00;;;6.70;1.00;;;;;;5071190;28;20180;-61
2022/03/14 02:28:58;;;;;;;8.70;6.73;;;6.70;1.00;;;;;;5074024;28;20453;-61
2022/03/14 02:31:24;;;;;;;9.73;6.50;;;6.70;1.00;;;;;;5072356;28;20265;-60
2022/03/14 02:33:49;;;;;;;8.30;6.80;;;6.70;1.00;;;;;;5072623;28;20483;-62
2022/03/14 02:36:15;;;;;;;10.03;6.83;;;6.70;1.00;;;;;;5072681;28;20441;-61
2022/03/14 02:38:40;;;;;;;10.37;6.30;;;6.60;1.00;;;;;;5071274;28;20287;-61
2022/03/14 02:41:15;;;;;;;8.30;6.60;;;6.60;1.00;;;;;;5070785;28;20198;-62
2022/03/14 02:43:40;;;;;;;8.77;6.13;;;6.70;1.00;;;;;;5072379;28;20182;-62
2022/03/14 02:46:12;;;;;;;8.13;6.60;;;6.70;1.00;;;;;;5072065;28;20444;-61
2022/03/14 02:48:40;;;;;;;7.93;6.03;;;;;;;;;;5070181;28;20498;-59
2022/03/14 02:51:11;;;;;;;8.80;6.57;;;6.60;1.00;;;;;;5071909;28;20849;-60
2022/03/14 02:53:36;;;;;;;9.57;6.17;;;6.60;1.00;;;;;;5070953;28;20519;-61
2022/03/14 02:56:02;;;;;;;12.30;6.90;;;6.60;1.00;;;;;;5069985;28;20542;-61
2022/03/14 02:58:29;;;;;;;9.40;7.10;;;6.50;1.00;;;;;;5071378;28;20668;-61
2022/03/14 03:00:56;;;;;;;10.93;5.90;;;;;;;;;;5073786;28;20230;-61
2022/03/14 03:03:22;;;;;;;8.10;6.50;;;6.40;1.00;;;;;;5068069;28;21010;-62
2022/03/14 03:05:48;;;;;;;8.20;6.20;;;6.40;1.00;;;;;;5070091;28;20532;-60
2022/03/14 03:08:14;;;;;;;10.67;6.47;;;6.40;1.00;;;;;;5071125;28;20183;-61
2022/03/14 03:10:41;;;;;;;10.17;7.17;;;6.40;1.00;;;;;;5070937;28;20768;-61
2022/03/14 03:13:07;;;;;;;7.93;6.80;;;6.50;1.00;;;;;;5072387;28;20840;-61
2022/03/14 03:15:37;;;;;;;10.77;7.07;;;6.50;1.00;;;;;;5070156;28;20441;-61
2022/03/14 03:18:04;;;;;;;6.73;5.90;;;6.50;1.00;;;;;;5072786;28;20192;-61
2022/03/14 03:20:30;;;;;;;9.30;7.30;;;6.40;1.00;;;;;;5071929;28;20931;-61
2022/03/14 03:22:55;;;;;;;7.90;6.53;;;6.30;1.00;;;;;;5068591;28;20488;-59
2022/03/14 03:25:21;;;;;;;9.20;7.00;;;6.30;1.00;;;;;;5071296;28;20441;-61
2022/03/14 03:27:46;;;;;;;10.37;6.60;;;6.30;1.00;;;;;;5071183;28;20187;-60
2022/03/14 03:30:12;;;;;;;8.80;7.10;;;6.40;1.00;;;;;;5070368;28;20187;-60
2022/03/14 03:32:38;;;;;;;8.60;6.70;;;6.40;1.00;;;;;;5069840;28;20207;-60
2022/03/14 03:35:03;;;;;;;9.27;6.20;;;6.30;1.00;;;;;;5071225;28;20214;-60
2022/03/14 03:37:29;;;;;;;7.43;6.33;;;6.30;1.00;;;;;;5070282;28;20207;-62
2022/03/14 03:39:55;;;;;;;8.20;6.70;;;6.30;1.00;;;;;;5071012;28;20191;-62
2022/03/14 03:42:20;;;;;;;12.53;7.23;;;6.30;1.00;;;;;;5071548;28;20601;-61
2022/03/14 03:44:46;;;;;;;8.63;6.93;;;6.40;1.00;;;;;;5069907;28;20187;-61
2022/03/14 03:47:11;;;;;;;7.67;6.30;;;6.30;1.00;;;;;;5069838;28;20187;-61
2022/03/14 03:49:38;;;;;;;10.07;5.97;;;6.30;1.00;;;;;;5068230;28;20429;-61
2022/03/14 03:52:05;;;;;;;11.40;7.33;;;6.20;1.00;;;;;;5070905;28;20234;-60
2022/03/14 03:54:30;;;;;;;8.63;6.90;;;6.20;1.00;;;;;;5069846;28;20942;-59
2022/03/14 03:56:56;;;;;;;8.23;6.93;;;6.30;1.00;;;;;;5070236;28;20465;-61
2022/03/14 03:59:22;;;;;;;8.03;6.63;;;6.30;1.00;;;;;;5068795;28;20190;-62
2022/03/14 04:01:48;;;;;;;10.20;7.37;;;6.40;1.00;;;;;;5070539;28;20246;-60
2022/03/14 04:04:14;;;;;;;8.97;7.07;;;6.20;1.00;;;;;;5069510;28;20477;-62
2022/03/14 04:06:40;;;;;;;9.63;7.23;;;6.20;1.00;;;;;;5069512;28;20533;-61
2022/03/14 04:09:06;;;;;;;8.03;6.47;;;6.10;1.00;;;;;;5050305;28;20198;-62
2022/03/14 04:11:31;;;;;;;10.57;6.67;;;6.10;1.00;;;;;;5050953;28;20458;-59
2022/03/14 04:13:58;;;;;;;11.37;6.63;;;6.00;1.00;;;;;;5072060;28;20464;-61
2022/03/14 04:16:26;;;;;;;8.10;6.30;;;6.00;1.00;;;;;;5071950;28;20207;-60
2022/03/14 04:18:52;;;;;;;7.37;6.40;;;6.00;1.00;;;;;;5050662;28;20463;-62
2022/03/14 04:21:18;;;;;;;10.43;6.93;;;6.00;1.00;;;;;;5070628;28;20922;-61
2022/03/14 04:23:43;;;;;;;8.77;6.50;;;6.10;1.00;;;;;;5070601;28;20434;-61
2022/03/14 04:26:12;;;;;;;8.50;7.20;;;6.10;1.00;;;;;;5068572;28;20358;-62
2022/03/14 04:28:40;;;;;;;9.50;7.33;;;6.00;1.00;;;;;;5069000;28;20196;-61
2022/03/14 04:31:12;;;;;;;12.20;6.30;;;6.00;1.00;;;;;;5070146;28;20736;-61
2022/03/14 04:33:38;;;;;;;9.47;6.60;;;7.80;1.00;;;;;;5068528;28;20465;-61
2022/03/14 04:36:04;;;;;;;10.73;7.27;;;6.00;1.00;;;;;;5070738;28;20771;-60
2022/03/14 04:38:30;;;;;;;7.57;6.53;;;6.00;1.00;;;;;;5070229;28;20194;-61
2022/03/14 04:40:56;;;;;;;12.13;7.03;;;6.10;1.00;;;;;;5069978;28;20446;-61
2022/03/14 04:43:24;;;;;;;8.03;6.60;;;6.20;1.00;;;;;;5068204;28;20210;-62
2022/03/14 04:45:50;;;;;;;9.03;6.50;;;6.30;1.00;;;;;;5069765;28;21269;-62
2022/03/14 04:48:17;;;;;;;7.50;6.10;;;6.20;1.00;;;;;;5068513;28;20506;-61
2022/03/14 04:50:43;;;;;;;12.03;7.23;;;6.30;1.00;;;;;;5069723;28;20457;-61
2022/03/14 04:53:09;;;;;;;8.10;6.50;;;6.30;1.00;;;;;;5069460;28;20487;-61
2022/03/14 04:55:36;;;;;;;7.60;5.90;;;6.30;1.00;;;;;;5069631;28;21034;-62
2022/03/14 04:58:05;;;;;;;9.40;6.77;;;6.30;1.00;;;;;;5069366;28;20473;-62
2022/03/14 05:00:32;;;;;;;8.70;6.53;;;6.30;1.00;;;;;;5070410;28;20466;-61
2022/03/14 05:03:05;;;;;;;8.27;6.30;;;6.40;1.00;;;;;;5065634;28;20463;-61
2022/03/14 05:05:31;;;;;;;8.03;6.50;;;6.40;1.00;;;;;;5068975;28;20524;-60
2022/03/14 05:07:57;;;;;;;9.30;6.20;;;6.40;1.00;;;;;;5067104;28;21161;-61
2022/03/14 05:10:23;;;;;;;8.30;5.90;;;6.40;1.00;;;;;;5068529;28;20445;-62
2022/03/14 05:12:49;;;;;;;11.37;6.53;;;6.30;1.00;;;;;;5070227;28;20495;-62
2022/03/14 05:15:16;;;;;;;10.20;6.03;;;6.30;1.00;;;;;;5068428;28;20461;-63
2022/03/14 05:17:42;;;;;;;6.70;5.50;;;6.40;1.00;;;;;;5068815;28;20439;-63
2022/03/14 05:20:09;;;;;;;8.03;6.63;;;6.50;1.00;;;;;;5060345;28;20499;-63
2022/03/14 05:22:43;;;;;;;10.17;6.00;;;6.60;1.00;;;;;;5070987;28;20441;-63
2022/03/14 05:25:10;;;;;;;8.60;6.93;;;6.60;1.00;;;;;;5066940;28;20445;-61
2022/03/14 05:27:37;;;;;;;8.90;7.00;;;6.60;1.00;;;;;;5069090;28;20445;-61
2022/03/14 05:30:03;;;;;;;9.53;6.73;;;6.60;1.00;;;;;;5068849;28;20970;-61
2022/03/14 05:32:29;;;;;;;10.17;6.80;;;6.60;1.00;;;;;;5051061;28;20462;-59
2022/03/14 05:34:54;;;;;;;11.27;6.97;;;6.70;1.00;;;;;;5069928;28;20438;-59
2022/03/14 05:37:20;;;;;;;9.70;5.47;;;;;;;;;;5052453;28;20237;-61
2022/03/14 05:39:49;;;;;;;7.43;6.67;;;6.70;1.00;;;;;;5071423;28;20566;-59
2022/03/14 05:42:15;;;;;;;10.00;6.73;;;6.70;1.00;;;;;;5069286;28;20525;-60
2022/03/14 05:44:43;;;;;;;8.00;6.20;;;6.80;1.00;;;;;;5069499;28;20915;-61
2022/03/14 05:47:09;;;;;;;9.17;6.40;;;6.80;1.00;;;;;;5068866;28;20448;-61
2022/03/14 05:49:34;;;;;;;6.67;5.97;;;6.80;1.00;;;;;;5052881;28;20436;-61
2022/03/14 05:52:00;;;;;;;10.27;6.20;;;;;;;;;;5069435;28;20207;-59
2022/03/14 05:54:26;;;;;;;7.40;6.20;;;;;;;;;;5069517;28;20179;-62
2022/03/14 05:56:53;;;;;;;7.47;6.67;;;6.80;1.00;;;;;;5069737;28;20532;-59
2022/03/14 05:59:19;;;;;;;9.87;6.80;;;6.90;1.00;;;;;;5068105;28;20441;-60
2022/03/14 06:01:46;;;;;;;10.73;6.13;;;6.90;1.00;;;;;;5068855;28;20811;-60
2022/03/14 06:04:11;;;;;;;7.87;6.13;;;6.90;1.00;;;;;;5069323;28;20198;-61
2022/03/14 06:06:37;;;;;;;9.53;6.87;;;6.90;1.00;;;;;;5067658;28;20438;-59
2022/03/14 06:09:03;;;;;;;9.90;6.60;;;6.90;1.00;;;;;;5070689;28;20176;-60
2022/03/14 06:11:28;;;;;;;10.30;7.00;;;7.10;1.00;;;;;;5069559;28;20441;-61
2022/03/14 06:13:54;;;;;;;14.40;6.57;;;7.10;1.00;;;;;;5070630;28;20222;-60
2022/03/14 06:16:21;;;;;;;9.23;7.23;;;7.10;1.00;;;;;;5067971;28;20179;-62
2022/03/14 06:18:47;;;;;;;8.43;6.40;;;7.10;1.00;;;;;;5068940;28;20316;-62
2022/03/14 06:21:12;;;;;;;11.60;7.33;;;7.10;1.00;;;;;;5070741;28;20541;-61
2022/03/14 06:23:38;;;;;;;8.70;6.47;;;7.20;1.00;;;;;;5072641;28;20180;-59
2022/03/14 06:26:03;;;;;;;9.57;6.00;;;7.20;1.00;;;;;;5054977;28;20183;-60
2022/03/14 06:28:29;;;;;;;9.37;7.37;;;7.20;1.00;;;;;;5072400;28;20267;-62
2022/03/14 06:30:54;;;;;;;9.63;6.70;;;7.20;1.00;;;;;;5071549;28;20188;-62
2022/03/14 06:33:20;;;;;;;8.60;6.40;;;7.30;1.00;;;;;;5072002;28;20290;-63
2022/03/14 06:35:46;;;;;;;10.00;6.60;;;7.30;1.00;;;;;;5072400;28;20190;-60
2022/03/14 06:38:12;;;;;;;11.90;7.63;;;7.40;1.00;;;;;;5072470;28;20445;-60
2022/03/14 06:40:40;;;;;;;8.20;7.10;;;7.50;1.00;;;;;;5071846;28;20184;-64
2022/03/14 06:43:06;;;;;;;15.53;7.77;;;7.50;1.00;;;;;;5072229;28;20448;-61
2022/03/14 06:45:32;;;;;;;9.03;6.90;;;7.60;1.00;;;;;;5070986;28;20457;-61
2022/03/14 06:47:58;;;;;;;7.03;6.13;;;7.60;1.00;;;;;;5073213;28;20425;-62
2022/03/14 06:50:24;;;;;;;8.63;6.60;;;7.60;1.00;;;;;;5073083;28;21028;-62
2022/03/14 06:52:50;;;;;;;7.30;6.50;;;7.90;1.00;;;;;;5072987;28;20582;-62
2022/03/14 06:55:16;;;;;;;13.53;7.50;;;8.00;1.00;;;;;;5071334;28;20533;-61
2022/03/14 06:57:42;;;;;;;8.87;6.50;;;8.10;1.00;;;;;;5071929;28;20982;-61
2022/03/14 07:00:08;;;;;;;7.30;6.60;;;8.30;1.00;;;;;;5071555;28;20524;-60
2022/03/14 07:02:37;;;;;;;8.87;6.40;;;8.60;1.00;;;;;;5071542;28;20180;-60
2022/03/14 07:05:03;;;;;;;14.80;6.97;;;8.60;1.00;;;;;;5053030;28;20834;-58
2022/03/14 07:07:29;;;;;;;10.27;7.30;;;8.70;1.00;;;;;;5070804;28;20445;-59
2022/03/14 07:09:54;;;;;;;8.50;6.60;;;8.70;1.00;;;;;;5069760;28;20449;-60
2022/03/14 07:12:20;;;;;;;7.23;6.53;;;8.70;1.00;;;;;;5071800;28;20212;-60
2022/03/14 07:14:45;;;;;;;10.10;6.70;;;8.70;1.00;;;;;;5051447;28;20645;-61
2022/03/14 07:17:11;;;;;;;8.80;6.40;;;8.80;1.00;;;;;;5072558;28;20598;-59
2022/03/14 07:19:42;;;;;;;15.43;6.70;;;9.00;1.00;;;;;;5072563;28;20187;-60
2022/03/14 07:22:08;;;;;;;10.57;7.23;;;9.10;1.00;;;;;;5071854;28;20187;-59
2022/03/14 07:24:34;;;;;;;12.80;8.23;;;9.10;1.00;;;;;;5069193;28;20447;-60
2022/03/14 07:26:59;;;;;;;10.93;7.70;;;9.30;1.00;;;;;;5068933;28;20444;-61
2022/03/14 07:29:25;;;;;;;8.50;7.20;;;9.30;1.00;;;;;;5069511;28;20190;-60
2022/03/14 07:31:50;;;;;;;9.03;7.20;;;9.20;1.00;;;;;;5069530;28;20244;-62
2022/03/14 07:34:16;;;;;;;12.80;7.07;;;9.20;1.00;;;;;;5070713;28;20206;-61
2022/03/14 07:36:42;;;;;;;15.30;7.97;;;9.30;1.00;;;;;;5071661;28;20263;-60
2022/03/14 07:39:08;;;;;;;7.73;6.70;;;9.30;1.00;;;;;;5071598;28;20907;-62
2022/03/14 07:41:34;;;;;;;11.60;6.97;;;9.40;1.00;;;;;;5070810;28;20446;-61
2022/03/14 07:44:00;;;;;;;9.40;7.40;;;9.30;1.00;;;;;;5071560;28;20559;-60
2022/03/14 07:46:27;;;;;;;17.23;7.80;;;9.50;1.00;;;;;;5071930;28;20202;-61
2022/03/14 07:48:53;;;;;;;8.80;7.90;;;9.70;1.00;;;;;;5072025;28;20441;-62
2022/03/14 07:51:19;;;;;;;10.17;6.23;;;9.70;1.00;;;;;;5071427;28;20799;-60
2022/03/14 07:53:44;;;;;;;7.00;6.30;;;9.70;1.00;;;;;;5071135;28;20211;-61
2022/03/14 07:56:14;;;;;;;14.20;7.40;;;9.80;1.00;;;;;;5068570;28;20184;-63
2022/03/14 07:58:41;;;;;;;9.43;6.73;;;9.90;1.00;;;;;;5069846;28;20231;-61
2022/03/14 08:01:12;;;;;;;10.10;6.70;;;9.90;1.00;;;;;;5067418;28;20473;-61
2022/03/14 08:03:38;;;;;;;11.00;7.10;;;10.20;1.00;;;;;;5071636;28;20446;-61
2022/03/14 08:06:04;;;;;;;9.67;7.77;;;10.20;1.00;;;;;;5070358;28;20468;-62
2022/03/14 08:08:30;;;;;;;11.03;7.60;;;10.40;1.00;;;;;;5071039;28;20194;-61
2022/03/14 08:10:57;;;;;;;10.73;7.70;;;10.30;1.00;;;;;;5050506;28;20520;-61
2022/03/14 08:13:23;;;;;;;9.90;7.47;;;10.40;1.00;;;;;;5070679;28;20496;-62
2022/03/14 08:15:48;;;;;;;9.27;7.20;;;10.40;1.00;;;;;;5071629;28;20460;-62
2022/03/14 08:18:14;;;;;;;11.53;7.50;;;10.40;1.00;;;;;;5071210;28;20184;-60
2022/03/14 08:20:40;;;;;;;10.00;7.80;;;11.90;1.00;;;;;;5071432;28;20218;-62
2022/03/14 08:23:06;;;;;;;9.33;7.50;;;10.70;1.00;;;;;;5071154;28;20494;-63
2022/03/14 08:25:34;;;;;;;10.03;7.70;;;10.80;1.00;;;;;;5071674;28;20233;-61
2022/03/14 08:28:01;;;;;;;14.37;7.60;;;10.80;1.00;;;;;;5071798;28;20765;-63
2022/03/14 08:30:27;;;;;;;7.93;6.70;;;10.90;1.00;;;;;;5070942;28;20437;-62
2022/03/14 08:32:55;;;;;;;7.60;6.90;;;11.10;1.00;;;;;;5070895;28;20548;-62
2022/03/14 08:35:22;;;;;;;8.27;6.80;;;11.30;1.00;;;;;;5073473;28;20969;-61
2022/03/14 08:37:50;;;;;;;7.57;6.83;;;11.20;1.00;;;;;;5070788;28;20457;-61
2022/03/14 08:40:22;;;;;;;9.83;8.00;;;11.30;1.00;;;;;;5070841;28;20525;-62
2022/03/14 08:42:49;;;;;;;10.70;8.17;;;11.30;1.00;;;;;;5069203;28;20458;-60
2022/03/14 08:45:16;;;;;;;10.23;8.03;;;11.20;1.00;;;;;;5071127;28;20962;-62
2022/03/14 08:47:42;;;;;;;9.03;7.63;;;11.50;1.00;;;;;;5070940;28;20445;-62
2022/03/14 08:50:09;;;;;;;15.73;8.43;;;11.60;1.00;;;;;;5052897;28;20441;-60
2022/03/14 08:52:35;;;;;;;9.30;8.13;;;11.70;1.00;;;;;;5070666;28;20461;-62
2022/03/14 08:55:02;;;;;;;9.37;7.60;;;11.80;1.00;;;;;;5070816;28;20437;-60
2022/03/14 08:57:27;;;;;;;11.63;7.17;;;11.80;1.00;;;;;;5071052;28;20513;-60
2022/03/14 08:59:54;;;;;;;9.73;8.50;;;11.80;1.00;;;;;;5070254;28;20552;-62
2022/03/14 09:02:20;;;;;;;8.77;7.73;;;11.80;1.00;;;;;;5070115;28;20235;-61
2022/03/14 09:04:45;;;;;;;10.90;8.03;;;11.90;1.00;;;;;;5070507;28;20449;-62
2022/03/14 09:07:11;;;;;;;10.40;7.93;;;12.20;1.00;;;;;;5070406;28;20503;-63
2022/03/14 09:09:37;;;;;;;8.70;7.57;;;12.40;1.00;;;;;;5070353;28;20641;-62
2022/03/14 09:12:03;;;;;;;13.83;8.70;;;12.40;1.00;;;;;;5070588;28;20190;-62
2022/03/14 09:14:31;;;;;;;10.13;7.50;;;12.50;1.00;;;;;;5070762;28;20444;-62
2022/03/14 09:16:57;;;;;;;12.03;8.43;;;12.30;1.00;;;;;;5053230;28;20434;-61
2022/03/14 09:19:23;;;;;;;10.90;8.23;;;12.40;1.00;;;;;;5070680;28;21019;-62
2022/03/14 09:21:48;;;;;;;9.90;8.70;;;12.40;1.00;;;;;;5052599;28;20442;-61
2022/03/14 09:24:14;;;;;;;9.30;8.17;;;12.70;1.00;;;;;;5070507;28;20831;-62
2022/03/14 09:26:39;;;;;;;9.30;7.97;;;12.80;1.00;;;;;;5070573;28;20262;-61
2022/03/14 09:29:06;;;;;;;7.90;7.10;;;12.80;1.00;;;;;;5070807;28;20267;-61
2022/03/14 09:31:32;;;;;;;9.90;8.50;;;12.90;1.00;;;;;;5052246;28;20652;-62
2022/03/14 09:33:58;;;;;;;9.13;8.20;;;13.10;1.00;;;;;;5051873;28;20509;-62
2022/03/14 09:36:24;;;;;;;9.77;8.47;;;;;;;;;;5069779;28;20175;-62
2022/03/14 09:38:50;;;;;;;11.17;7.67;;;13.70;1.00;;;;;;5070370;28;20979;-62
2022/03/14 09:41:21;;;;;;;11.30;8.80;;;13.80;1.00;;;;;;5070574;28;20517;-61
2022/03/14 09:43:51;;;;;;;8.40;7.60;;;13.60;1.00;;;;;;5070368;28;20176;-62
2022/03/14 09:46:19;;;;;;;10.53;8.57;;;13.10;1.00;;;;;;5069739;28;20777;-63
2022/03/14 09:48:49;;;;;;;10.70;8.90;;;13.00;1.00;;;;;;5071430;28;20728;-63
2022/03/14 09:51:17;;;;;;;11.10;7.93;;;13.90;1.00;;;;;;5070374;28;20441;-63
2022/03/14 09:53:44;;;;;;;19.33;8.93;;;13.20;1.00;;;;;;5072805;28;20522;-61
2022/03/14 09:56:12;;;;;;;12.23;8.30;;;13.20;1.00;;;;;;5074251;28;20437;-61
2022/03/14 09:58:39;;;;;;;11.13;8.80;;;13.50;1.00;;;;;;5073938;28;20479;-63
2022/03/14 10:01:04;;;;;;;10.57;8.63;;;13.60;1.00;;;;;;5073728;28;20950;-62
2022/03/14 10:03:31;;;;;;;10.33;8.60;;;13.70;1.00;;;;;;5074645;28;20492;-62
2022/03/14 10:05:56;;;;;;;10.07;8.40;;;13.70;1.00;;;;;;5073699;28;20186;-60
2022/03/14 10:08:22;;;;;;;10.50;9.27;;;13.80;1.00;;;;;;5055986;28;20440;-61
2022/03/14 10:10:48;;;;;;;12.83;8.47;;;13.80;1.00;;;;;;5074011;28;20652;-60
2022/03/14 10:13:16;;;;;;;12.50;8.33;;;14.40;1.00;;;;;;5073950;28;20530;-61
2022/03/14 10:15:42;;;;;;;11.20;9.20;;;14.40;1.00;;;;;;5073802;28;20215;-60
2022/03/14 10:18:13;;;;;;;10.70;7.40;;;14.60;1.00;;;;;;5071548;28;20422;-61
2022/03/14 10:21:05;;;;;;;10.13;8.67;;;14.60;1.00;;;;;;5073754;28;21105;-62
2022/03/14 10:23:49;;;;;;;10.30;9.20;;;14.60;1.00;;;;;;5073474;28;20441;-62
2022/03/14 10:26:21;;;;;;;10.70;8.60;;;15.00;1.00;;;;;;5073430;28;20446;-62
2022/03/14 10:28:49;;;;;;;10.77;8.63;;;15.30;1.00;;;;;;5073591;28;20440;-63
2022/03/14 10:31:26;;;;;;;11.20;9.40;;;15.30;1.00;;;;;;5073668;28;20429;-62
2022/03/14 10:33:52;;;;;;;12.73;9.17;;;15.20;1.00;;;;;;5073483;28;21291;-62
2022/03/14 10:36:36;;;;;;;10.40;8.90;;;15.10;1.00;;;;;;5055689;28;20540;-61
2022/03/14 10:39:20;;;;;;;11.23;9.50;;;14.80;1.00;;;;;;5073290;28;20523;-61
2022/03/14 10:42:07;;;;;;;14.97;9.77;;;14.70;1.00;;;;;;5073352;28;20436;-60
2022/03/14 10:44:36;;;;;;;18.97;8.93;;;14.50;1.00;;;;;;5073059;28;20437;-62
2022/03/14 10:47:04;;;;;;;10.13;9.00;;;14.60;1.00;;;;;;5072899;28;20433;-62
2022/03/14 10:49:32;;;;;;;9.90;8.63;;;14.70;1.00;;;;;;5072671;28;20442;-62
2022/03/14 10:52:00;;;;;;;11.80;9.63;;;14.80;1.00;;;;;;5072374;28;20442;-61
2022/03/14 10:54:26;;;;;;;10.03;8.83;;;14.80;1.00;;;;;;5072999;28;20480;-61
2022/03/14 10:57:25;;;;;;;10.53;9.00;;;15.30;1.00;;;;;;5073054;28;20437;-62
2022/03/14 10:59:53;;;;;;;16.23;9.40;;;15.30;1.00;;;;;;5072907;28;20452;-62
2022/03/14 11:02:21;;;;;;;13.17;11.53;;;16.00;1.00;;;;;;5054267;28;20504;-61
2022/03/14 11:04:48;;;;;;;20.40;12.20;;;16.10;1.00;;;;;;5071417;28;20461;-61
2022/03/14 11:07:15;;;;;;;13.57;9.37;;;16.10;1.00;;;;;;5072676;28;20441;-61
2022/03/14 11:09:42;;;;;;;17.67;10.90;;;16.00;1.00;;;;;;5054543;28;20529;-62
2022/03/14 11:12:19;;;;;;;13.87;10.57;;;16.00;1.00;;;;;;5055583;28;20490;-61
2022/03/14 11:14:52;;;;;;;11.00;9.90;;;15.90;1.00;;;;;;5071565;28;20432;-61
2022/03/14 11:17:20;;;;;;;10.80;9.70;;;15.70;1.00;;;;;;5072378;28;20433;-62
2022/03/14 11:19:46;;;;;;;11.67;9.60;;;;;;;;;;5072201;28;20787;-63
2022/03/14 11:22:13;;;;;;;11.50;10.30;;;15.50;1.00;;;;;;5072581;28;20926;-62
2022/03/14 11:24:47;;;;;;;10.60;9.13;;;15.50;1.00;;;;;;5072218;28;20976;-61
2022/03/14 11:27:34;;;;;;;13.40;10.13;;;15.50;1.00;;;;;;5072757;28;20528;-63
2022/03/14 11:30:06;;;;;;;13.20;9.77;;;15.40;1.00;;;;;;5072476;28;20429;-61
2022/03/14 11:32:33;;;;;;;11.60;9.60;;;15.40;1.00;;;;;;5054313;28;20461;-64
2022/03/14 11:35:02;;;;;;;13.17;9.13;;;15.00;1.00;;;;;;5072438;28;20760;-63
2022/03/14 11:37:31;;;;;;;10.57;9.07;;;15.00;1.00;;;;;;5072283;28;20429;-62
2022/03/14 11:39:58;;;;;;;11.83;9.40;;;15.00;1.00;;;;;;5072183;28;20528;-63
2022/03/14 11:42:23;;;;;;;11.77;9.33;;;15.00;1.00;;;;;;5071760;28;20441;-63
2022/03/14 11:44:50;;;;;;;12.33;10.30;;;15.10;1.00;;;;;;5071866;28;20582;-62
2022/03/14 11:47:18;;;;;;;10.70;9.60;;;15.20;1.00;;;;;;5072250;28;20210;-61
2022/03/14 11:49:45;;;;;;;11.27;10.17;;;15.20;1.00;;;;;;5071275;28;20523;-62
2022/03/14 11:52:19;;;;;;;14.43;10.70;;;15.50;1.00;;;;;;5071687;28;20491;-62
2022/03/14 11:54:50;;;;;;;11.00;9.80;;;15.60;1.00;;;;;;5052836;28;20446;-62
2022/03/14 11:57:41;;;;;;;13.10;9.63;;;15.70;1.00;;;;;;5072152;28;20787;-61
2022/03/14 12:00:21;;;;;;;11.47;9.97;;;15.60;1.00;;;;;;5073463;28;20436;-61
2022/03/14 12:02:49;;;;;;;10.83;9.60;;;15.70;1.00;;;;;;5072055;28;20445;-62
2022/03/14 12:05:21;;;;;;;12.00;10.00;;;15.80;1.00;;;;;;5071608;28;20437;-62
2022/03/14 12:07:46;;;;;;;11.57;10.37;;;16.10;1.00;;;;;;5071708;28;20771;-62
2022/03/14 12:10:26;;;;;;;12.80;11.23;;;16.10;1.00;;;;;;5071534;28;20490;-63
2022/03/14 12:12:53;;;;;;;12.97;9.50;;;16.10;1.00;;;;;;5071049;28;20276;-62
2022/03/14 12:15:37;;;;;;;12.20;10.53;;;16.10;1.00;;;;;;5053267;28;20437;-65
2022/03/14 12:18:28;;;;;;;11.27;10.17;;;16.10;1.00;;;;;;5070368;28;20434;-61
2022/03/14 12:21:07;;;;;;;11.90;10.50;;;16.00;1.00;;;;;;5072221;28;20440;-63
2022/03/14 12:23:34;;;;;;;12.80;9.27;;;16.20;1.00;;;;;;5071270;28;20493;-63
2022/03/14 12:26:22;;;;;;;13.13;11.73;;;16.40;1.00;;;;;;5071439;28;20596;-63
2022/03/14 12:28:48;;;;;;;11.00;9.77;;;16.40;1.00;;;;;;5056047;28;20469;-63
2022/03/14 12:31:15;;;;;;;11.73;10.50;;;16.50;1.00;;;;;;5071774;28;21019;-63
2022/03/14 12:33:44;;;;;;;12.23;10.53;;;16.60;1.00;;;;;;5055278;28;20195;-63
2022/03/14 12:36:24;;;;;;;11.90;10.23;;;16.70;1.00;;;;;;5071088;28;20491;-63
2022/03/14 12:39:05;;;;;;;12.20;10.90;;;16.80;1.00;;;;;;5070703;28;20968;-62
2022/03/14 12:41:31;;;;;;;14.07;10.80;;;16.80;1.00;;;;;;5071312;28;20473;-64
2022/03/14 12:43:57;;;;;;;13.73;12.00;;;16.80;1.00;;;;;;5071086;28;20435;-62
2022/03/14 12:46:24;;;;;;;11.50;10.50;;;16.70;1.00;;;;;;5071201;28;20445;-65
2022/03/14 12:48:53;;;;;;;16.47;11.80;;;16.70;1.00;;;;;;5071021;28;20194;-64
2022/03/14 12:51:31;;;;;;;11.50;10.30;;;16.60;1.00;;;;;;5071017;28;20847;-63
2022/03/14 12:54:00;;;;;;;15.17;11.20;;;16.30;1.00;;;;;;5070859;28;20465;-62
2022/03/14 12:56:28;;;;;;;12.83;10.87;;;15.60;1.00;;;;;;5071188;28;20867;-63
2022/03/14 12:59:00;;;;;;;16.77;11.10;;;15.60;1.00;;;;;;5052645;28;20443;-64
2022/03/14 13:01:27;;;;;;;12.13;11.00;;;15.60;1.00;;;;;;5070800;28;20535;-63
2022/03/14 13:03:53;;;;;;;15.20;11.10;;;15.50;1.00;;;;;;5072195;28;20528;-63